sensor_id;sensor_type;location;lat;lon;timestamp;pressure;altitude;pressure_sealevel;temperature;humidity
86612;BME280;77290;50.078;14.470;2024-03-29T00:02:29;97159.63;;;6.38;nan
86612;BME280;77290;50.078;14.470;2024-03-29T00:04:56;97157.00;;;6.40;nan
86612;BME280;77290;50.078;14.470;2024-03-29T00:07:22;97151.81;;;6.40;nan
86612;BME280;77290;50.078;14.470;2024-03-29T00:09:47;97141.47;;;6.38;nan
86612;BME280;77290;50.078;14.470;2024-03-29T00:12:13;97147.50;;;6.40;nan
86612;BME280;77290;50.078;14.470;2024-03-29T00:14:38;97157.94;;;6.34;nan
86612;BME280;77290;50.078;14.470;2024-03-29T00:17:05;97152.72;;;6.37;nan
86612;BME280;77290;50.078;14.470;2024-03-29T00:19:32;97165.66;;;6.37;nan
86612;BME280;77290;50.078;14.470;2024-03-29T00:21:58;97170.88;;;6.36;nan
86612;BME280;77290;50.078;14.470;2024-03-29T00:24:31;97176.03;;;6.36;nan
86612;BME280;77290;50.078;14.470;2024-03-29T00:26:59;97183.00;;;6.34;nan
86612;BME280;77290;50.078;14.470;2024-03-29T00:29:24;97182.97;;;6.35;nan
86612;BME280;77290;50.078;14.470;2024-03-29T00:31:52;97175.19;;;6.35;nan
86612;BME280;77290;50.078;14.470;2024-03-29T00:34:17;97185.53;;;6.37;nan
86612;BME280;77290;50.078;14.470;2024-03-29T00:36:42;97192.50;;;6.33;nan
86612;BME280;77290;50.078;14.470;2024-03-29T00:39:08;97199.44;;;6.31;nan
86612;BME280;77290;50.078;14.470;2024-03-29T00:41:36;97206.38;;;6.28;nan
86612;BME280;77290;50.078;14.470;2024-03-29T00:44:04;97212.44;;;6.27;nan
86612;BME280;77290;50.078;14.470;2024-03-29T00:46:29;97226.31;;;6.23;nan
86612;BME280;77290;50.078;14.470;2024-03-29T00:48:55;97215.09;;;6.22;nan
86612;BME280;77290;50.078;14.470;2024-03-29T00:51:20;97079.81;;;5.42;nan
86612;BME280;77290;50.078;14.470;2024-03-29T00:53:46;97219.41;;;6.22;nan
86612;BME280;77290;50.078;14.470;2024-03-29T00:56:14;97216.00;;;6.18;nan
86612;BME280;77290;50.078;14.470;2024-03-29T00:58:40;97217.69;;;6.21;nan
86612;BME280;77290;50.078;14.470;2024-03-29T01:01:05;97220.31;;;6.19;nan
86612;BME280;77290;50.078;14.470;2024-03-29T01:03:31;97228.94;;;6.18;nan
86612;BME280;77290;50.078;14.470;2024-03-29T01:05:56;97794.34;;;6.14;nan
86612;BME280;77290;50.078;14.470;2024-03-29T01:08:22;97211.78;;;6.11;nan
86612;BME280;77290;50.078;14.470;2024-03-29T01:10:51;97225.59;;;6.10;nan
86612;BME280;77290;50.078;14.470;2024-03-29T01:13:18;97402.06;;;7.20;nan
86612;BME280;77290;50.078;14.470;2024-03-29T01:15:45;97210.91;;;6.10;nan
86612;BME280;77290;50.078;14.470;2024-03-29T01:18:10;97214.34;;;6.13;nan
86612;BME280;77290;50.078;14.470;2024-03-29T01:20:38;96908.84;;;4.29;nan
86612;BME280;77290;50.078;14.470;2024-03-29T01:23:04;97221.25;;;6.14;nan
86612;BME280;77290;50.078;14.470;2024-03-29T01:25:29;97226.44;;;6.12;nan
86612;BME280;77290;50.078;14.470;2024-03-29T01:27:55;97210.97;;;6.09;nan
86612;BME280;77290;50.078;14.470;2024-03-29T01:30:20;97215.25;;;6.10;nan
86612;BME280;77290;50.078;14.470;2024-03-29T01:32:51;97216.16;;;6.06;nan
86612;BME280;77290;50.078;14.470;2024-03-29T01:35:18;97219.56;;;6.09;nan
86612;BME280;77290;50.078;14.470;2024-03-29T01:37:44;97208.41;;;6.04;nan
86612;BME280;77290;50.078;14.470;2024-03-29T01:40:10;97206.69;;;6.05;nan
86612;BME280;77290;50.078;14.470;2024-03-29T01:42:35;97206.72;;;6.02;nan
86612;BME280;77290;50.078;14.470;2024-03-29T01:45:01;97198.13;;;6.00;nan
86612;BME280;77290;50.078;14.470;2024-03-29T01:47:28;97210.31;;;5.92;nan
86612;BME280;77290;50.078;14.470;2024-03-29T01:49:56;97206.88;;;5.87;nan
86612;BME280;77290;50.078;14.470;2024-03-29T01:52:22;97203.44;;;5.86;nan
86612;BME280;77290;50.078;14.470;2024-03-29T01:54:51;97206.09;;;5.82;nan
86612;BME280;77290;50.078;14.470;2024-03-29T01:57:19;97209.56;;;5.78;nan
86612;BME280;77290;50.078;14.470;2024-03-29T01:59:46;97205.34;;;5.70;nan
86612;BME280;77290;50.078;14.470;2024-03-29T02:02:15;97206.25;;;5.68;nan
86612;BME280;77290;50.078;14.470;2024-03-29T02:04:41;97217.47;;;5.65;nan
86612;BME280;77290;50.078;14.470;2024-03-29T02:07:07;97212.38;;;5.58;nan
86612;BME280;77290;50.078;14.470;2024-03-29T02:09:32;97221.88;;;5.57;nan
86612;BME280;77290;50.078;14.470;2024-03-29T02:11:58;97220.22;;;5.52;nan
86612;BME280;77290;50.078;14.470;2024-03-29T02:14:24;97215.94;;;5.46;nan
86612;BME280;77290;50.078;14.470;2024-03-29T02:16:54;97216.88;;;5.41;nan
86612;BME280;77290;50.078;14.470;2024-03-29T02:19:22;97229.81;;;5.42;nan
86612;BME280;77290;50.078;14.470;2024-03-29T02:21:54;97229.81;;;5.39;nan
86612;BME280;77290;50.078;14.470;2024-03-29T02:24:23;97222.91;;;5.41;nan
86612;BME280;77290;50.078;14.470;2024-03-29T02:26:48;97222.03;;;5.42;nan
86612;BME280;77290;50.078;14.470;2024-03-29T02:29:14;97218.59;;;5.42;nan
86612;BME280;77290;50.078;14.470;2024-03-29T02:31:42;97229.81;;;5.42;nan
86612;BME280;77290;50.078;14.470;2024-03-29T02:34:07;97234.97;;;5.42;nan
86612;BME280;77290;50.078;14.470;2024-03-29T02:36:34;97529.16;;;7.22;nan
86612;BME280;77290;50.078;14.470;2024-03-29T02:39:00;97219.47;;;5.39;nan
86612;BME280;77290;50.078;14.470;2024-03-29T02:41:25;97589.16;;;6.88;nan
86612;BME280;77290;50.078;14.470;2024-03-29T02:43:51;97221.25;;;5.34;nan
86612;BME280;77290;50.078;14.470;2024-03-29T02:46:19;97216.97;;;5.31;nan
86612;BME280;77290;50.078;14.470;2024-03-29T02:48:45;97222.16;;;5.30;nan
86612;BME280;77290;50.078;14.470;2024-03-29T02:51:10;97217.03;;;5.27;nan
86612;BME280;77290;50.078;14.470;2024-03-29T02:53:36;97227.38;;;5.22;nan
86612;BME280;77290;50.078;14.470;2024-03-29T02:56:04;97224.88;;;5.18;nan
86612;BME280;77290;50.078;14.470;2024-03-29T02:58:33;97238.66;;;5.15;nan
86612;BME280;77290;50.078;14.470;2024-03-29T03:01:08;97240.44;;;5.09;nan
86612;BME280;77290;50.078;14.470;2024-03-29T03:03:35;97243.84;;;5.11;nan
86612;BME280;77290;50.078;14.470;2024-03-29T03:06:03;97258.56;;;5.06;nan
86612;BME280;77290;50.078;14.470;2024-03-29T03:08:32;97430.00;;;5.05;nan
86612;BME280;77290;50.078;14.470;2024-03-29T03:11:18;97244.78;;;5.04;nan
86612;BME280;77290;50.078;14.470;2024-03-29T03:13:46;97265.47;;;5.04;nan
86612;BME280;77290;50.078;14.470;2024-03-29T03:16:11;97254.25;;;5.05;nan
86612;BME280;77290;50.078;14.470;2024-03-29T03:18:37;97259.41;;;5.05;nan
86612;BME280;77290;50.078;14.470;2024-03-29T03:21:07;97244.81;;;5.02;nan
86612;BME280;77290;50.078;14.470;2024-03-29T03:23:35;97079.38;;;4.10;nan
86612;BME280;77290;50.078;14.470;2024-03-29T03:26:05;97242.25;;;5.01;nan
86612;BME280;77290;50.078;14.470;2024-03-29T03:28:31;97248.28;;;4.96;nan
86612;BME280;77290;50.078;14.470;2024-03-29T03:30:57;97262.06;;;4.97;nan
86612;BME280;77290;50.078;14.470;2024-03-29T03:33:25;97252.59;;;4.97;nan
86612;BME280;77290;50.078;14.470;2024-03-29T03:35:50;97243.09;;;5.00;nan
86612;BME280;77290;50.078;14.470;2024-03-29T03:38:20;97243.09;;;5.00;nan
86612;BME280;77290;50.078;14.470;2024-03-29T03:40:45;97243.97;;;5.02;nan
86612;BME280;77290;50.078;14.470;2024-03-29T03:43:11;97231.91;;;5.01;nan
86612;BME280;77290;50.078;14.470;2024-03-29T03:45:41;97225.88;;;4.98;nan
86612;BME280;77290;50.078;14.470;2024-03-29T03:48:08;96383.53;;;4.95;nan
86612;BME280;77290;50.078;14.470;2024-03-29T03:50:34;97217.25;;;4.98;nan
86612;BME280;77290;50.078;14.470;2024-03-29T03:53:05;97230.25;;;4.93;nan
86612;BME280;77290;50.078;14.470;2024-03-29T03:55:36;97210.44;;;4.94;nan
86612;BME280;77290;50.078;14.470;2024-03-29T03:58:02;97206.94;;;4.95;nan
86612;BME280;77290;50.078;14.470;2024-03-29T04:00:28;97221.56;;;4.97;nan
86612;BME280;77290;50.078;14.470;2024-03-29T04:02:54;97220.69;;;5.00;nan
86612;BME280;77290;50.078;14.470;2024-03-29T04:05:20;97203.47;;;5.02;nan
86612;BME280;77290;50.078;14.470;2024-03-29T04:07:46;97202.63;;;4.98;nan
86612;BME280;77290;50.078;14.470;2024-03-29T04:10:12;97214.69;;;5.00;nan
86612;BME280;77290;50.078;14.470;2024-03-29T04:12:38;97223.28;;;5.02;nan
86612;BME280;77290;50.078;14.470;2024-03-29T04:15:04;97224.09;;;5.07;nan
86612;BME280;77290;50.078;14.470;2024-03-29T04:17:30;97117.00;;;4.42;nan
86612;BME280;77290;50.078;14.470;2024-03-29T04:19:57;97227.53;;;5.07;nan
86612;BME280;77290;50.078;14.470;2024-03-29T04:22:23;97661.34;;;7.30;nan
86612;BME280;77290;50.078;14.470;2024-03-29T04:24:48;97307.59;;;5.12;nan
86612;BME280;77290;50.078;14.470;2024-03-29T04:27:16;97207.66;;;5.11;nan
86612;BME280;77290;50.078;14.470;2024-03-29T04:29:42;97120.28;;;4.59;nan
86612;BME280;77290;50.078;14.470;2024-03-29T04:32:08;97146.00;;;4.71;nan
86612;BME280;77290;50.078;14.470;2024-03-29T04:34:33;97218.91;;;5.10;nan
86612;BME280;77290;50.078;14.470;2024-03-29T04:37:02;97211.97;;;5.12;nan
86612;BME280;77290;50.078;14.470;2024-03-29T04:39:28;97207.66;;;5.11;nan
86612;BME280;77290;50.078;14.470;2024-03-29T04:41:54;97208.56;;;5.10;nan
86612;BME280;77290;50.078;14.470;2024-03-29T04:44:26;97198.19;;;5.11;nan
86612;BME280;77290;50.078;14.470;2024-03-29T04:46:52;97457.22;;;6.64;nan
86612;BME280;77290;50.078;14.470;2024-03-29T04:49:19;97202.47;;;5.17;nan
86612;BME280;77290;50.078;14.470;2024-03-29T04:51:51;97211.00;;;5.25;nan
86612;BME280;77290;50.078;14.470;2024-03-29T04:54:17;97217.81;;;5.32;nan
86612;BME280;77290;50.078;14.470;2024-03-29T04:56:42;97217.75;;;5.40;nan
86612;BME280;77290;50.078;14.470;2024-03-29T04:59:10;97234.06;;;5.46;nan
86612;BME280;77290;50.078;14.470;2024-03-29T05:01:36;97237.50;;;5.48;nan
86612;BME280;77290;50.078;14.470;2024-03-29T05:04:02;97255.59;;;5.48;nan
86612;BME280;77290;50.078;14.470;2024-03-29T05:06:30;97241.66;;;5.61;nan
86612;BME280;77290;50.078;14.470;2024-03-29T05:08:58;97251.88;;;5.73;nan
86612;BME280;77290;50.078;14.470;2024-03-29T05:11:23;97253.50;;;5.84;nan
86612;BME280;77290;50.078;14.470;2024-03-29T05:13:49;97252.53;;;5.94;nan
86612;BME280;77290;50.078;14.470;2024-03-29T05:16:14;97247.16;;;6.12;nan
86612;BME280;77290;50.078;14.470;2024-03-29T05:18:42;97250.56;;;6.16;nan
86612;BME280;77290;50.078;14.470;2024-03-29T05:21:08;97243.59;;;6.19;nan
86612;BME280;77290;50.078;14.470;2024-03-29T05:23:36;97241.06;;;6.18;nan
86612;BME280;77290;50.078;14.470;2024-03-29T05:26:02;97235.91;;;6.16;nan
86612;BME280;77290;50.078;14.470;2024-03-29T05:28:28;97225.53;;;6.16;nan
86612;BME280;77290;50.078;14.470;2024-03-29T05:31:11;97214.34;;;6.14;nan
86612;BME280;77290;50.078;14.470;2024-03-29T05:33:37;97222.19;;;6.08;nan
86612;BME280;77290;50.078;14.470;2024-03-29T05:36:03;97222.22;;;6.05;nan
86612;BME280;77290;50.078;14.470;2024-03-29T05:38:36;97216.19;;;6.03;nan
86612;BME280;77290;50.078;14.470;2024-03-29T05:41:04;97223.16;;;5.99;nan
86612;BME280;77290;50.078;14.470;2024-03-29T05:43:29;97221.38;;;6.03;nan
86612;BME280;77290;50.078;14.470;2024-03-29T05:45:55;97223.97;;;6.03;nan
86612;BME280;77290;50.078;14.470;2024-03-29T05:48:20;97227.38;;;6.08;nan
86612;BME280;77290;50.078;14.470;2024-03-29T05:50:46;97372.13;;;6.98;nan
86612;BME280;77290;50.078;14.470;2024-03-29T05:53:11;97235.03;;;6.16;nan
86612;BME280;77290;50.078;14.470;2024-03-29T05:55:42;97242.72;;;6.22;nan
86612;BME280;77290;50.078;14.470;2024-03-29T05:58:07;97244.38;;;6.27;nan
86612;BME280;77290;50.078;14.470;2024-03-29T06:00:33;97252.94;;;6.32;nan
86612;BME280;77290;50.078;14.470;2024-03-29T06:03:02;97244.25;;;6.36;nan
86612;BME280;77290;50.078;14.470;2024-03-29T06:05:30;97354.72;;;6.40;nan
86612;BME280;77290;50.078;14.470;2024-03-29T06:07:58;97238.94;;;6.45;nan
86612;BME280;77290;50.078;14.470;2024-03-29T06:10:23;96888.09;;;4.38;nan
86612;BME280;77290;50.078;14.470;2024-03-29T06:12:49;96671.25;;;8.54;nan
86612;BME280;77290;50.078;14.470;2024-03-29T06:15:15;97256.06;;;6.59;nan
86612;BME280;77290;50.078;14.470;2024-03-29T06:18:02;97260.16;;;6.73;nan
86612;BME280;77290;50.078;14.470;2024-03-29T06:20:31;97258.97;;;6.94;nan
86612;BME280;77290;50.078;14.470;2024-03-29T06:22:56;97261.56;;;6.94;nan
86612;BME280;77290;50.078;14.470;2024-03-29T06:25:22;97265.75;;;7.01;nan
86612;BME280;77290;50.078;14.470;2024-03-29T06:27:53;97603.94;;;9.26;nan
86612;BME280;77290;50.078;14.470;2024-03-29T06:30:18;97257.88;;;7.58;nan
86612;BME280;77290;50.078;14.470;2024-03-29T06:32:44;97253.56;;;8.05;nan
86612;BME280;77290;50.078;14.470;2024-03-29T06:35:11;97983.94;;;12.10;nan
86612;BME280;77290;50.078;14.470;2024-03-29T06:37:36;96973.97;;;7.28;nan
86612;BME280;77290;50.078;14.470;2024-03-29T06:40:02;97230.59;;;9.39;nan
86612;BME280;77290;50.078;14.470;2024-03-29T06:42:33;97230.59;;;9.39;nan
86612;BME280;77290;50.078;14.470;2024-03-29T06:44:58;97272.25;;;10.38;nan
86612;BME280;77290;50.078;14.470;2024-03-29T06:47:24;97279.69;;;10.79;nan
86612;BME280;77290;50.078;14.470;2024-03-29T06:49:52;97281.06;;;10.92;nan
86612;BME280;77290;50.078;14.470;2024-03-29T06:52:18;97278.38;;;11.22;nan
86612;BME280;77290;50.078;14.470;2024-03-29T06:54:43;96997.75;;;9.80;nan
86612;BME280;77290;50.078;14.470;2024-03-29T06:57:08;97276.63;;;11.76;nan
86612;BME280;77290;50.078;14.470;2024-03-29T06:59:35;97283.97;;;12.15;nan
86612;BME280;77290;50.078;14.470;2024-03-29T07:02:01;97269.34;;;12.57;nan
86612;BME280;77290;50.078;14.470;2024-03-29T07:04:28;97274.34;;;13.09;nan
86612;BME280;77290;50.078;14.470;2024-03-29T07:06:59;97260.34;;;13.53;nan
86612;BME280;77290;50.078;14.470;2024-03-29T07:09:24;97267.72;;;13.44;nan
86612;BME280;77290;50.078;14.470;2024-03-29T07:11:51;97252.31;;;13.98;nan
86612;BME280;77290;50.078;14.470;2024-03-29T07:14:19;97230.25;;;14.23;nan
86612;BME280;77290;50.078;14.470;2024-03-29T07:16:45;97242.22;;;13.89;nan
86612;BME280;77290;50.078;14.470;2024-03-29T07:19:11;97237.63;;;13.94;nan
86612;BME280;77290;50.078;14.470;2024-03-29T07:21:43;97250.59;;;13.97;nan
86612;BME280;77290;50.078;14.470;2024-03-29T07:24:09;97237.63;;;14.33;nan
86612;BME280;77290;50.078;14.470;2024-03-29T07:26:36;97235.13;;;14.51;nan
86612;BME280;77290;50.078;14.470;2024-03-29T07:29:02;97242.47;;;14.63;nan
86612;BME280;77290;50.078;14.470;2024-03-29T07:31:33;97228.19;;;14.68;nan
86612;BME280;77290;50.078;14.470;2024-03-29T07:33:59;97214.63;;;14.96;nan
86612;BME280;77290;50.078;14.470;2024-03-29T07:36:24;97223.16;;;15.18;nan
86612;BME280;77290;50.078;14.470;2024-03-29T07:38:54;97223.72;;;15.25;nan
86612;BME280;77290;50.078;14.470;2024-03-29T07:41:23;97241.06;;;15.29;nan
86612;BME280;77290;50.078;14.470;2024-03-29T07:43:52;97237.44;;;15.32;nan
86612;BME280;77290;50.078;14.470;2024-03-29T07:46:21;97214.88;;;15.45;nan
86612;BME280;77290;50.078;14.470;2024-03-29T07:48:48;96875.59;;;13.82;nan
86612;BME280;77290;50.078;14.470;2024-03-29T07:51:13;97223.78;;;15.94;nan
86612;BME280;77290;50.078;14.470;2024-03-29T07:53:41;97210.63;;;16.11;nan
86612;BME280;77290;50.078;14.470;2024-03-29T07:56:06;97185.78;;;16.81;nan
86612;BME280;77290;50.078;14.470;2024-03-29T07:58:34;97184.53;;;17.34;nan
86612;BME280;77290;50.078;14.470;2024-03-29T08:01:03;97182.19;;;17.29;nan
86612;BME280;77290;50.078;14.470;2024-03-29T08:03:28;97185.69;;;16.67;nan
86612;BME280;77290;50.078;14.470;2024-03-29T08:08:23;97189.44;;;15.28;nan
86612;BME280;77290;50.078;14.470;2024-03-29T08:10:50;96799.88;;;12.65;nan
86612;BME280;77290;50.078;14.470;2024-03-29T08:13:16;97191.59;;;14.26;nan
86612;BME280;77290;50.078;14.470;2024-03-29T08:15:45;97186.72;;;14.00;nan
86612;BME280;77290;50.078;14.470;2024-03-29T08:18:13;97178.00;;;13.79;nan
86612;BME280;77290;50.078;14.470;2024-03-29T08:20:39;97654.69;;;16.42;nan
86612;BME280;77290;50.078;14.470;2024-03-29T08:23:05;97180.50;;;13.62;nan
86612;BME280;77290;50.078;14.470;2024-03-29T08:25:32;97190.84;;;13.65;nan
86612;BME280;77290;50.078;14.470;2024-03-29T08:27:58;97178.94;;;13.58;nan
86612;BME280;77290;50.078;14.470;2024-03-29T08:30:27;97185.72;;;13.62;nan
86612;BME280;77290;50.078;14.470;2024-03-29T08:32:57;97175.47;;;13.57;nan
86612;BME280;77290;50.078;14.470;2024-03-29T08:35:24;97184.19;;;13.58;nan
86612;BME280;77290;50.078;14.470;2024-03-29T08:37:50;97184.19;;;13.58;nan
86612;BME280;77290;50.078;14.470;2024-03-29T08:40:18;97192.66;;;14.03;nan
86612;BME280;77290;50.078;14.470;2024-03-29T08:42:43;97178.72;;;14.22;nan
86612;BME280;77290;50.078;14.470;2024-03-29T08:45:09;97180.25;;;14.46;nan
86612;BME280;77290;50.078;14.470;2024-03-29T08:47:35;97207.34;;;14.65;nan
86612;BME280;77290;50.078;14.470;2024-03-29T08:50:00;97172.53;;;15.68;nan
86612;BME280;77290;50.078;14.470;2024-03-29T08:52:29;97183.94;;;16.50;nan
86612;BME280;77290;50.078;14.470;2024-03-29T08:54:56;97178.94;;;16.46;nan
86612;BME280;77290;50.078;14.470;2024-03-29T08:57:22;97194.97;;;16.41;nan
86612;BME280;77290;50.078;14.470;2024-03-29T08:59:50;97184.66;;;17.46;nan
86612;BME280;77290;50.078;14.470;2024-03-29T09:02:17;97184.44;;;18.38;nan
86612;BME280;77290;50.078;14.470;2024-03-29T09:04:46;97174.69;;;18.95;nan
86612;BME280;77290;50.078;14.470;2024-03-29T09:07:14;97167.31;;;19.00;nan
86612;BME280;77290;50.078;14.470;2024-03-29T09:09:40;96814.78;;;17.18;nan
86612;BME280;77290;50.078;14.470;2024-03-29T09:12:10;97173.63;;;18.56;nan
86612;BME280;77290;50.078;14.470;2024-03-29T09:14:38;97184.19;;;18.28;nan
86612;BME280;77290;50.078;14.470;2024-03-29T09:17:06;97146.72;;;18.50;nan
86612;BME280;77290;50.078;14.470;2024-03-29T09:19:32;97139.66;;;18.65;nan
86612;BME280;77290;50.078;14.470;2024-03-29T09:21:58;97150.34;;;18.90;nan
86612;BME280;77290;50.078;14.470;2024-03-29T09:24:23;97147.31;;;19.62;nan
86612;BME280;77290;50.078;14.470;2024-03-29T09:26:51;97144.91;;;20.23;nan
86612;BME280;77290;50.078;14.470;2024-03-29T09:29:22;97138.53;;;20.63;nan
86612;BME280;77290;50.078;14.470;2024-03-29T09:31:48;97123.31;;;21.02;nan
86612;BME280;77290;50.078;14.470;2024-03-29T09:34:16;97160.19;;;21.17;nan
86612;BME280;77290;50.078;14.470;2024-03-29T09:36:42;97120.00;;;21.35;nan
86612;BME280;77290;50.078;14.470;2024-03-29T09:39:07;97122.88;;;21.67;nan
86612;BME280;77290;50.078;14.470;2024-03-29T09:41:34;97098.63;;;21.60;nan
86612;BME280;77290;50.078;14.470;2024-03-29T09:44:08;97099.56;;;21.48;nan
86612;BME280;77290;50.078;14.470;2024-03-29T09:46:33;97099.69;;;21.46;nan
86612;BME280;77290;50.078;14.470;2024-03-29T09:49:00;97118.78;;;21.97;nan
86612;BME280;77290;50.078;14.470;2024-03-29T09:51:28;97119.25;;;21.68;nan
86612;BME280;77290;50.078;14.470;2024-03-29T09:53:55;97099.50;;;21.83;nan
86612;BME280;77290;50.078;14.470;2024-03-29T09:56:26;97093.00;;;22.65;nan
86612;BME280;77290;50.078;14.470;2024-03-29T09:58:52;97102.94;;;22.74;nan
86612;BME280;77290;50.078;14.470;2024-03-29T10:01:20;97091.75;;;23.02;nan
86612;BME280;77290;50.078;14.470;2024-03-29T10:03:49;97094.72;;;23.52;nan
86612;BME280;77290;50.078;14.470;2024-03-29T10:06:18;97085.19;;;24.01;nan
86612;BME280;77290;50.078;14.470;2024-03-29T10:08:50;97082.88;;;24.17;nan
86612;BME280;77290;50.078;14.470;2024-03-29T10:11:16;97091.19;;;24.44;nan
86612;BME280;77290;50.078;14.470;2024-03-29T10:13:45;97091.72;;;23.34;nan
86612;BME280;77290;50.078;14.470;2024-03-29T10:16:11;97088.44;;;23.10;nan
86612;BME280;77290;50.078;14.470;2024-03-29T10:18:40;96777.22;;;20.98;nan
86612;BME280;77290;50.078;14.470;2024-03-29T10:21:07;97071.81;;;24.12;nan
86612;BME280;77290;50.078;14.470;2024-03-29T10:23:34;97072.34;;;24.86;nan
86612;BME280;77290;50.078;14.470;2024-03-29T10:26:03;97072.81;;;25.68;nan
86612;BME280;77290;50.078;14.470;2024-03-29T10:28:31;97073.91;;;26.22;nan
86612;BME280;77290;50.078;14.470;2024-03-29T10:31:02;97281.84;;;26.76;nan
86612;BME280;77290;50.078;14.470;2024-03-29T10:33:31;97063.00;;;26.70;nan
86612;BME280;77290;50.078;14.470;2024-03-29T10:36:00;97058.81;;;26.67;nan
86612;BME280;77290;50.078;14.470;2024-03-29T10:38:29;97048.31;;;26.83;nan
86612;BME280;77290;50.078;14.470;2024-03-29T10:40:54;97047.28;;;26.67;nan
86612;BME280;77290;50.078;14.470;2024-03-29T10:43:20;97064.19;;;25.93;nan
86612;BME280;77290;50.078;14.470;2024-03-29T10:45:49;97032.31;;;25.63;nan
86612;BME280;77290;50.078;14.470;2024-03-29T10:48:25;97038.09;;;24.91;nan
86612;BME280;77290;50.078;14.470;2024-03-29T10:50:54;97361.88;;;27.25;nan
86612;BME280;77290;50.078;14.470;2024-03-29T10:53:22;97040.25;;;26.01;nan
86612;BME280;77290;50.078;14.470;2024-03-29T10:55:50;97025.47;;;25.31;nan
86612;BME280;77290;50.078;14.470;2024-03-29T10:58:16;97027.38;;;24.72;nan
86612;BME280;77290;50.078;14.470;2024-03-29T11:00:47;97016.75;;;25.95;nan
86612;BME280;77290;50.078;14.470;2024-03-29T11:03:19;97012.72;;;25.91;nan
86612;BME280;77290;50.078;14.470;2024-03-29T11:05:49;97020.25;;;25.39;nan
86612;BME280;77290;50.078;14.470;2024-03-29T11:08:26;97024.28;;;24.67;nan
86612;BME280;77290;50.078;14.470;2024-03-29T11:11:00;97010.84;;;24.97;nan
86612;BME280;77290;50.078;14.470;2024-03-29T11:16:05;97022.56;;;24.46;nan
86612;BME280;77290;50.078;14.470;2024-03-29T11:18:35;97009.09;;;24.48;nan
86612;BME280;77290;50.078;14.470;2024-03-29T11:21:02;96997.78;;;25.13;nan
86612;BME280;77290;50.078;14.470;2024-03-29T11:23:34;97006.22;;;25.28;nan
86612;BME280;77290;50.078;14.470;2024-03-29T11:25:59;97002.94;;;25.63;nan
86612;BME280;77290;50.078;14.470;2024-03-29T11:30:58;97268.97;;;25.94;nan
86612;BME280;77290;50.078;14.470;2024-03-29T11:33:29;97005.69;;;24.26;nan
86612;BME280;77290;50.078;14.470;2024-03-29T11:36:38;97012.75;;;23.76;nan
86612;BME280;77290;50.078;14.470;2024-03-29T11:38:47;97011.94;;;22.70;nan
86612;BME280;77290;50.078;14.470;2024-03-29T11:41:23;97138.19;;;22.09;nan
86612;BME280;77290;50.078;14.470;2024-03-29T11:43:56;97016.13;;;21.17;nan
86612;BME280;77290;50.078;14.470;2024-03-29T11:46:25;97036.78;;;21.01;nan
86612;BME280;77290;50.078;14.470;2024-03-29T11:48:51;96742.16;;;19.19;nan
86612;BME280;77290;50.078;14.470;2024-03-29T11:51:23;97044.41;;;20.34;nan
86612;BME280;77290;50.078;14.470;2024-03-29T11:53:54;97061.28;;;19.95;nan
86612;BME280;77290;50.078;14.470;2024-03-29T11:56:22;97035.25;;;19.63;nan
86612;BME280;77290;50.078;14.470;2024-03-29T11:58:48;97024.56;;;19.52;nan
86612;BME280;77290;50.078;14.470;2024-03-29T12:01:18;96683.78;;;17.59;nan
86612;BME280;77290;50.078;14.470;2024-03-29T12:03:43;97016.63;;;19.65;nan
86612;BME280;77290;50.078;14.470;2024-03-29T12:06:12;97013.25;;;19.63;nan
86612;BME280;77290;50.078;14.470;2024-03-29T12:08:39;97043.53;;;19.59;nan
86612;BME280;77290;50.078;14.470;2024-03-29T12:11:08;97047.63;;;19.88;nan
86612;BME280;77290;50.078;14.470;2024-03-29T12:13:36;97062.13;;;19.70;nan
86612;BME280;77290;50.078;14.470;2024-03-29T12:16:02;97380.19;;;21.44;nan
86612;BME280;77290;50.078;14.470;2024-03-29T12:18:31;97070.84;;;19.59;nan
86612;BME280;77290;50.078;14.470;2024-03-29T12:20:57;97070.84;;;19.59;nan
86612;BME280;77290;50.078;14.470;2024-03-29T12:23:23;97079.50;;;19.49;nan
86612;BME280;77290;50.078;14.470;2024-03-29T12:25:50;97081.13;;;19.37;nan
86612;BME280;77290;50.078;14.470;2024-03-29T12:28:20;97075.66;;;19.53;nan
86612;BME280;77290;50.078;14.470;2024-03-29T12:30:48;97071.69;;;19.60;nan
86612;BME280;77290;50.078;14.470;2024-03-29T12:33:14;97069.97;;;19.59;nan
86612;BME280;77290;50.078;14.470;2024-03-29T12:35:46;97061.47;;;20.04;nan
86612;BME280;77290;50.078;14.470;2024-03-29T12:38:17;97059.09;;;20.74;nan
86612;BME280;77290;50.078;14.470;2024-03-29T12:40:48;97047.59;;;21.68;nan
86612;BME280;77290;50.078;14.470;2024-03-29T12:43:15;97035.75;;;22.61;nan
86612;BME280;77290;50.078;14.470;2024-03-29T12:45:45;97040.88;;;23.48;nan
86612;BME280;77290;50.078;14.470;2024-03-29T12:48:21;97030.84;;;24.13;nan
86612;BME280;77290;50.078;14.470;2024-03-29T12:50:48;97020.09;;;24.74;nan
86612;BME280;77290;50.078;14.470;2024-03-29T12:53:16;97033.06;;;25.07;nan
86612;BME280;77290;50.078;14.470;2024-03-29T12:55:44;97151.31;;;25.08;nan
86612;BME280;77290;50.078;14.470;2024-03-29T12:58:11;97007.09;;;24.40;nan
86612;BME280;77290;50.078;14.470;2024-03-29T13:00:40;97009.78;;;24.40;nan
86612;BME280;77290;50.078;14.470;2024-03-29T13:03:10;96719.84;;;22.77;nan
86612;BME280;77290;50.078;14.470;2024-03-29T13:05:37;97012.22;;;24.82;nan
86612;BME280;77290;50.078;14.470;2024-03-29T13:08:11;97007.72;;;24.73;nan
86612;BME280;77290;50.078;14.470;2024-03-29T13:10:38;97163.41;;;25.21;nan
86612;BME280;77290;50.078;14.470;2024-03-29T13:13:05;97002.13;;;25.43;nan
86612;BME280;77290;50.078;14.470;2024-03-29T13:15:33;96998.03;;;25.49;nan
86612;BME280;77290;50.078;14.470;2024-03-29T13:17:58;96195.72;;;20.38;nan
86612;BME280;77290;50.078;14.470;2024-03-29T13:20:25;96207.88;;;24.97;nan
86612;BME280;77290;50.078;14.470;2024-03-29T13:22:53;96999.03;;;24.90;nan
86612;BME280;77290;50.078;14.470;2024-03-29T13:25:21;97000.69;;;24.72;nan
86612;BME280;77290;50.078;14.470;2024-03-29T13:27:53;97001.00;;;24.19;nan